Macdiarmid, Canada
Current Conditions -  °F | °C
As of 2:00 PM on Friday 24 Oct 2014 (Local Time) from CYGQ Reporting Station
Haze Haze  
Wind Chill: 45°   Ceiling: 500
Heat Index: 48°   Visibility: 3mi
Dew Point: 46°   Wind: 8mph
Humidity: 93%   Direction: 210°SSW
Pressure: 29.76"   Gusts: NA
Location:  49.43°N, 88.12°W
Report Text: CYGQ 241800Z 21007KT 3SM BR BKN005 OVC020 09/08 A2976 RMKSF6SC2 SLP088
Loading
Personal Weather Stations






























Interactive Weather Map
Tropical Storm Tracking
New forecast layout! Learn more

10-Day Weather Forecast

Advertisements
Track Severe Weather on mobile